Time;durP1;ratioP1;P1;durP2;ratioP2;P2;SDS_P1;SDS_P2;PMS_P1;PMS_P2;Temp;Humidity;BMP_temperature;BMP_pressure;BME280_temperature;BME280_humidity;BME280_pressure;Samples;Min_cycle;Max_cycle;Signal;HPM_P1;HPM_P2
2022/08/27 00:01:53;;;;;;;24.50;16.60;;;22.50;92.60;;;;;;5040531;28;20475;-52
2022/08/27 00:04:20;;;;;;;30.37;16.30;;;22.50;92.90;;;;;;5039084;28;21085;-52
2022/08/27 00:06:48;;;;;;;30.40;16.33;;;22.50;92.60;;;;;;5039676;28;22096;-51
2022/08/27 00:09:14;;;;;;;21.03;15.37;;;22.60;92.40;;;;;;5043057;28;20878;-52
2022/08/27 00:11:41;;;;;;;25.53;16.03;;;22.70;92.30;;;;;;5040063;28;20486;-52
2022/08/27 00:14:08;;;;;;;25.80;15.43;;;22.70;92.40;;;;;;5038805;28;21036;-52
2022/08/27 00:16:34;;;;;;;30.53;15.73;;;22.70;92.20;;;;;;5040832;28;20534;-52
2022/08/27 00:19:01;;;;;;;22.30;15.60;;;22.80;92.10;;;;;;5041125;28;20490;-52
2022/08/27 00:21:28;;;;;;;27.50;15.80;;;22.80;92.20;;;;;;5040862;28;20475;-52
2022/08/27 00:23:56;;;;;;;21.00;14.20;;;22.80;92.20;;;;;;5040205;28;20487;-52
2022/08/27 00:26:23;;;;;;;40.73;16.73;;;22.80;92.30;;;;;;5030835;28;20486;-52
2022/08/27 00:28:50;;;;;;;29.20;18.20;;;22.80;92.40;;;;;;5039757;28;20486;-52
2022/08/27 00:31:17;;;;;;;27.37;15.20;;;22.80;92.50;;;;;;5041120;28;20483;-52
2022/08/27 00:33:44;;;;;;;27.60;16.10;;;22.80;92.60;;;;;;5038608;28;20474;-52
2022/08/27 00:36:12;;;;;;;21.80;14.27;;;22.80;92.60;;;;;;5042080;28;21331;-52
2022/08/27 00:38:40;;;;;;;23.10;15.00;;;22.80;92.80;;;;;;5043072;28;20672;-52
2022/08/27 00:41:11;;;;;;;26.20;15.37;;;22.80;92.70;;;;;;5038584;28;20472;-52
2022/08/27 00:43:46;;;;;;;22.73;16.03;;;22.80;92.50;;;;;;5037490;28;20487;-52
2022/08/27 00:46:20;;;;;;;24.10;15.40;;;22.80;92.60;;;;;;5038074;28;20477;-52
2022/08/27 00:48:48;;;;;;;20.87;15.00;;;22.80;92.80;;;;;;5037678;28;20980;-52
2022/08/27 00:51:15;;;;;;;23.63;15.40;;;22.80;92.60;;;;;;5042437;28;21062;-52
2022/08/27 00:53:42;;;;;;;24.37;15.47;;;22.80;92.60;;;;;;5028113;28;21012;-52
2022/08/27 00:56:14;;;;;;;34.17;19.00;;;22.80;92.60;;;;;;5040126;28;20488;-51
2022/08/27 00:58:44;;;;;;;27.47;17.90;;;22.90;92.60;;;;;;5044786;28;20937;-52
2022/08/27 01:01:14;;;;;;;29.53;18.30;;;22.90;92.50;;;;;;5044164;28;20482;-52
2022/08/27 01:03:46;;;;;;;26.07;18.17;;;22.90;92.40;;;;;;5033303;28;20477;-52
2022/08/27 01:06:14;;;;;;;26.27;18.70;;;22.90;92.70;;;;;;5024207;28;20538;-52
2022/08/27 01:08:50;;;;;;;27.17;17.97;;;22.90;93.10;;;;;;5024209;28;20922;-52
2022/08/27 01:11:19;;;;;;;30.30;17.57;;;22.90;93.40;;;;;;5021584;28;20476;-52
2022/08/27 01:13:46;;;;;;;30.20;18.87;;;22.70;93.20;;;;;;5028682;28;20951;-52
2022/08/27 01:16:20;;;;;;;26.90;19.20;;;22.70;93.30;;;;;;5027878;28;20793;-52
2022/08/27 01:18:47;;;;;;;27.10;17.47;;;22.60;93.40;;;;;;5014438;28;20483;-52
2022/08/27 01:21:22;;;;;;;28.93;18.97;;;22.60;93.60;;;;;;5032108;28;21044;-52
2022/08/27 01:23:54;;;;;;;28.93;20.17;;;22.60;93.70;;;;;;5025238;28;20484;-52
2022/08/27 01:26:23;;;;;;;26.07;19.63;;;22.60;94.00;;;;;;5017222;28;20488;-52
2022/08/27 01:28:51;;;;;;;30.33;17.63;;;22.50;93.90;;;;;;5031831;28;20463;-52
2022/08/27 01:31:18;;;;;;;22.67;17.60;;;22.40;93.80;;;;;;5034663;28;20528;-52
2022/08/27 01:33:54;;;;;;;28.80;20.30;;;22.40;94.10;;;;;;5024498;28;20488;-52
2022/08/27 01:36:21;;;;;;;21.53;15.93;;;22.40;94.20;;;;;;5025791;28;20483;-52
2022/08/27 01:38:48;;;;;;;26.87;19.30;;;22.40;93.90;;;;;;5031572;28;20479;-52
2022/08/27 01:41:14;;;;;;;28.47;19.33;;;22.30;94.20;;;;;;5022417;28;20992;-52
2022/08/27 01:43:42;;;;;;;28.67;18.17;;;22.30;93.90;;;;;;5028342;28;20491;-52
2022/08/27 01:46:09;;;;;;;25.60;17.50;;;22.30;94.00;;;;;;5022168;28;21048;-52
2022/08/27 01:48:36;;;;;;;24.53;18.30;;;22.40;94.00;;;;;;5021318;28;20476;-52
2022/08/27 01:51:04;;;;;;;30.53;18.23;;;22.40;94.00;;;;;;5018614;28;20500;-53
2022/08/27 01:53:30;;;;;;;28.37;17.53;;;22.30;94.10;;;;;;5025885;28;20484;-52
2022/08/27 01:55:58;;;;;;;26.93;19.80;;;22.30;94.10;;;;;;5021331;28;20472;-52
2022/08/27 01:58:28;;;;;;;27.67;18.73;;;22.30;94.30;;;;;;5018655;28;20909;-52
2022/08/27 02:00:59;;;;;;;30.03;20.70;;;22.20;94.50;;;;;;5031724;28;20871;-52
2022/08/27 02:03:26;;;;;;;29.10;19.10;;;22.20;94.80;;;;;;5028197;28;20564;-52
2022/08/27 02:05:53;;;;;;;24.03;18.30;;;22.20;94.60;;;;;;5022257;28;20869;-52
2022/08/27 02:08:20;;;;;;;28.97;16.40;;;22.30;94.60;;;;;;5022589;28;20580;-53
2022/08/27 02:10:49;;;;;;;30.20;19.20;;;22.30;94.50;;;;;;5033631;28;20789;-52
2022/08/27 02:13:16;;;;;;;28.30;21.00;;;22.20;94.60;;;;;;5031460;28;20487;-52
2022/08/27 02:15:44;;;;;;;28.37;19.47;;;22.20;94.60;;;;;;5016866;28;20479;-52
2022/08/27 02:18:13;;;;;;;31.33;20.33;;;22.30;94.40;;;;;;5032060;28;20593;-52
2022/08/27 02:20:40;;;;;;;28.20;17.67;;;22.30;94.70;;;;;;5029876;28;20564;-52
2022/08/27 02:23:07;;;;;;;25.67;19.60;;;22.30;94.20;;;;;;5015675;28;20921;-52
2022/08/27 02:25:35;;;;;;;25.93;18.30;;;22.40;94.00;;;;;;5016689;28;21003;-52
2022/08/27 02:28:03;;;;;;;27.40;17.93;;;22.50;93.90;;;;;;5026973;28;20498;-53
2022/08/27 02:30:31;;;;;;;26.30;18.80;;;22.50;93.80;;;;;;5017302;28;20480;-52
2022/08/27 02:32:59;;;;;;;28.27;19.27;;;22.50;94.00;;;;;;5005156;28;21020;-52
2022/08/27 02:35:28;;;;;;;31.10;17.17;;;22.40;94.10;;;;;;5018891;28;20948;-52
2022/08/27 02:37:55;;;;;;;26.87;18.23;;;22.40;94.10;;;;;;5019396;28;20812;-52
2022/08/27 02:40:23;;;;;;;24.90;18.23;;;22.40;94.00;;;;;;5033426;28;20749;-52
2022/08/27 02:42:50;;;;;;;23.50;17.17;;;22.40;94.30;;;;;;5030296;28;20948;-51
2022/08/27 02:45:19;;;;;;;24.67;17.00;;;22.40;94.10;;;;;;5029990;28;20488;-52
2022/08/27 02:47:45;;;;;;;29.40;19.57;;;22.30;94.10;;;;;;5014541;28;20847;-51
2022/08/27 02:50:13;;;;;;;23.77;17.00;;;22.30;94.30;;;;;;5015430;28;20476;-52
2022/08/27 02:52:44;;;;;;;24.07;17.70;;;22.30;94.40;;;;;;5034017;28;20479;-52
2022/08/27 02:55:11;;;;;;;24.43;17.93;;;22.30;94.40;;;;;;5020917;28;20488;-52
2022/08/27 02:57:38;;;;;;;23.53;16.60;;;22.20;94.30;;;;;;5013865;28;20492;-52
2022/08/27 03:00:06;;;;;;;26.67;17.90;;;22.20;94.30;;;;;;5032324;28;20476;-52
2022/08/27 03:02:33;;;;;;;23.03;17.73;;;22.20;94.50;;;;;;5023436;28;20493;-52
2022/08/27 03:04:59;;;;;;;21.33;16.97;;;22.20;94.60;;;;;;5017174;28;20481;-51
2022/08/27 03:07:26;;;;;;;21.37;17.17;;;22.20;95.00;;;;;;5021092;28;20476;-52
2022/08/27 03:09:54;;;;;;;22.13;18.87;;;22.10;94.70;;;;;;5018928;28;20689;-52
2022/08/27 03:12:21;;;;;;;25.73;15.30;;;22.10;94.60;;;;;;5027823;28;20755;-52
2022/08/27 03:14:48;;;;;;;23.37;17.53;;;22.20;94.70;;;;;;5020139;28;20496;-51
2022/08/27 03:20:00;;;;;;;27.80;17.67;;;22.20;94.40;;;;;;5026875;28;20471;-52
2022/08/27 03:22:27;;;;;;;27.13;18.70;;;22.30;94.50;;;;;;5031707;28;20472;-52
2022/08/27 03:24:56;;;;;;;24.83;18.00;;;22.30;94.60;;;;;;5024778;28;20492;-52
2022/08/27 03:27:22;;;;;;;25.40;17.03;;;22.30;94.60;;;;;;5015479;28;21088;-51
2022/08/27 03:29:49;;;;;;;34.13;19.33;;;22.30;94.50;;;;;;5019009;28;20865;-51
2022/08/27 03:32:16;;;;;;;23.30;16.33;;;22.40;94.40;;;;;;5015211;28;20485;-52
2022/08/27 03:34:42;;;;;;;24.30;16.03;;;22.30;94.60;;;;;;5023783;28;20488;-52
2022/08/27 03:37:09;;;;;;;27.23;17.77;;;22.30;94.80;;;;;;5017640;28;20487;-51
2022/08/27 03:39:36;;;;;;;25.03;17.10;;;22.20;94.90;;;;;;5023791;28;21003;-52
2022/08/27 03:42:04;;;;;;;28.07;17.80;;;22.20;95.10;;;;;;5030671;28;20852;-52
2022/08/27 03:44:31;;;;;;;25.00;18.53;;;22.20;95.10;;;;;;5021451;28;20835;-51
2022/08/27 03:46:58;;;;;;;25.30;18.23;;;22.20;95.10;;;;;;5022176;28;20485;-51
2022/08/27 03:49:25;;;;;;;27.50;19.47;;;22.10;95.00;;;;;;5020994;28;20488;-52
2022/08/27 03:51:53;;;;;;;26.93;18.60;;;22.10;95.30;;;;;;5018442;28;20475;-51
2022/08/27 03:54:20;;;;;;;30.90;19.80;;;22.20;95.00;;;;;;5020724;28;20513;-52
2022/08/27 03:56:46;;;;;;;23.87;18.87;;;22.20;95.30;;;;;;5013248;28;20492;-52
2022/08/27 03:59:15;;;;;;;23.13;17.17;;;22.10;95.20;;;;;;5023166;28;20479;-52
2022/08/27 04:01:41;;;;;;;23.57;17.70;;;22.10;95.10;;;;;;5018034;28;20499;-52
2022/08/27 04:04:08;;;;;;;24.80;17.60;;;22.10;95.40;;;;;;5020189;28;20477;-52
2022/08/27 04:06:35;;;;;;;29.30;18.13;;;22.10;95.30;;;;;;5019106;28;20497;-51
2022/08/27 04:09:03;;;;;;;22.83;17.67;;;22.10;95.40;;;;;;5015956;28;20481;-51
2022/08/27 04:11:30;;;;;;;26.30;19.00;;;22.10;95.40;;;;;;5029217;28;20513;-51
2022/08/27 04:13:57;;;;;;;28.17;19.10;;;22.10;95.70;;;;;;5021062;28;20476;-51
2022/08/27 04:16:25;;;;;;;24.33;16.97;;;22.10;95.40;;;;;;5015013;28;20841;-51
2022/08/27 04:18:54;;;;;;;26.97;18.60;;;22.10;95.20;;;;;;5020507;28;20488;-51
2022/08/27 04:21:21;;;;;;;26.50;20.30;;;22.10;95.60;;;;;;5025261;28;20931;-52
2022/08/27 04:23:48;;;;;;;31.37;20.90;;;22.10;95.20;;;;;;5018797;28;20480;-51
2022/08/27 04:26:15;;;;;;;25.20;17.40;;;22.10;95.20;;;;;;5030976;28;21059;-52
2022/08/27 04:28:43;;;;;;;25.93;19.67;;;22.10;95.30;;;;;;5017971;28;20480;-52
2022/08/27 04:31:10;;;;;;;26.80;17.80;;;22.00;95.30;;;;;;5016637;28;20487;-51
2022/08/27 04:33:38;;;;;;;35.73;20.00;;;22.00;95.70;;;;;;5015407;28;20499;-51
2022/08/27 04:36:07;;;;;;;31.67;20.27;;;21.90;95.70;;;;;;4998755;28;20641;-50
2022/08/27 04:38:34;;;;;;;29.07;20.10;;;21.90;95.80;;;;;;4994209;28;20960;-50
2022/08/27 04:41:21;;;;;;;28.50;18.50;;;21.90;95.80;;;;;;5023490;28;20484;-50
2022/08/27 04:43:50;;;;;;;25.87;19.60;;;21.90;95.50;;;;;;5017852;28;20475;-50
2022/08/27 04:46:21;;;;;;;23.30;17.90;;;21.90;95.80;;;;;;5013753;28;20484;-51
2022/08/27 04:48:49;;;;;;;25.23;17.50;;;21.90;95.70;;;;;;5031814;28;20472;-50
2022/08/27 04:51:15;;;;;;;28.50;18.80;;;21.90;95.90;;;;;;5012096;28;20485;-51
2022/08/27 04:53:42;;;;;;;25.60;19.13;;;21.90;95.80;;;;;;5015865;28;20749;-50
2022/08/27 04:56:13;;;;;;;28.50;18.80;;;21.90;95.60;;;;;;5014255;28;20853;-51
2022/08/27 04:58:40;;;;;;;32.03;20.63;;;22.00;95.60;;;;;;5016747;28;20499;-51
2022/08/27 05:01:06;;;;;;;21.77;17.57;;;22.00;95.60;;;;;;5024654;28;20484;-50
2022/08/27 05:03:33;;;;;;;26.73;17.77;;;22.00;95.70;;;;;;5024849;28;20478;-50
2022/08/27 05:06:05;;;;;;;26.43;20.67;;;22.00;95.60;;;;;;5023899;28;20479;-50
2022/08/27 05:08:33;;;;;;;22.73;17.67;;;21.90;95.80;;;;;;5026283;28;20489;-50
2022/08/27 05:11:00;;;;;;;27.47;19.17;;;22.00;95.50;;;;;;5012900;28;20568;-50
2022/08/27 05:13:29;;;;;;;27.70;18.23;;;22.00;95.60;;;;;;5015151;28;21062;-51
2022/08/27 05:16:00;;;;;;;26.23;18.23;;;22.00;95.60;;;;;;5017730;28;20485;-50
2022/08/27 05:18:27;;;;;;;25.20;19.20;;;22.00;95.60;;;;;;5027951;28;20486;-51
2022/08/27 05:20:54;;;;;;;28.87;18.07;;;22.00;95.40;;;;;;5022438;28;21013;-50
2022/08/27 05:23:26;;;;;;;24.97;19.53;;;22.00;95.50;;;;;;5015283;28;20965;-51
2022/08/27 05:25:54;;;;;;;23.90;17.23;;;22.00;95.60;;;;;;5027785;28;20719;-50
2022/08/27 05:28:22;;;;;;;24.07;17.03;;;22.00;95.90;;;;;;5020655;28;20480;-51
2022/08/27 05:30:51;;;;;;;26.40;19.27;;;22.00;95.90;;;;;;5018540;28;20495;-51
2022/08/27 05:33:20;;;;;;;24.23;17.20;;;22.00;95.80;;;;;;5018305;28;20483;-51
2022/08/27 05:35:48;;;;;;;26.63;19.60;;;22.00;96.00;;;;;;5027716;28;20622;-51
2022/08/27 05:38:17;;;;;;;26.70;18.13;;;22.00;96.20;;;;;;5028915;28;20460;-51
2022/08/27 05:40:46;;;;;;;25.97;18.47;;;22.00;95.80;;;;;;5012622;28;20488;-51
2022/08/27 05:43:14;;;;;;;28.13;17.93;;;22.00;96.00;;;;;;5022856;28;20903;-51
2022/08/27 05:45:42;;;;;;;25.70;18.10;;;22.00;96.20;;;;;;5030535;28;20496;-51
2022/08/27 05:48:10;;;;;;;23.03;16.83;;;21.90;96.50;;;;;;5024627;28;20479;-51
2022/08/27 05:50:37;;;;;;;25.10;18.57;;;;;;;;;;5017210;28;20902;-51
2022/08/27 05:53:04;;;;;;;28.90;20.03;;;21.90;96.50;;;;;;5015177;28;20721;-52
2022/08/27 05:55:36;;;;;;;24.83;18.47;;;21.80;96.70;;;;;;5030256;28;20476;-51
2022/08/27 05:58:04;;;;;;;27.03;20.63;;;21.90;96.70;;;;;;5033715;28;20470;-51
2022/08/27 06:03:15;;;;;;;24.50;17.87;;;21.90;97.00;;;;;;5014177;28;20567;-51
2022/08/27 06:05:42;;;;;;;29.47;18.37;;;21.90;97.30;;;;;;5029369;28;21153;-51
2022/08/27 06:08:08;;;;;;;25.30;18.73;;;21.90;96.90;;;;;;5025117;28;21020;-51
2022/08/27 06:10:40;;;;;;;23.87;17.17;;;21.80;97.10;;;;;;5017041;28;20861;-51
2022/08/27 06:13:08;;;;;;;26.27;18.27;;;21.80;97.30;;;;;;5023581;28;20555;-51
2022/08/27 06:15:35;;;;;;;24.23;16.60;;;21.80;97.10;;;;;;5025168;28;20899;-51
2022/08/27 06:18:04;;;;;;;20.30;14.90;;;21.80;97.20;;;;;;5030112;28;20491;-51
2022/08/27 06:20:31;;;;;;;21.73;15.67;;;21.80;97.00;;;;;;5024023;28;20488;-51
2022/08/27 06:22:58;;;;;;;17.83;14.90;;;21.80;97.10;;;;;;5032282;28;21025;-51
2022/08/27 06:25:25;;;;;;;20.17;14.07;;;21.80;96.90;;;;;;5033082;28;21012;-51
2022/08/27 06:27:51;;;;;;;20.90;14.60;;;21.80;97.20;;;;;;5020024;28;20553;-51
2022/08/27 06:30:19;;;;;;;15.07;12.30;;;21.80;97.20;;;;;;5020644;28;20477;-50
2022/08/27 06:32:46;;;;;;;14.73;11.07;;;21.80;97.00;;;;;;5020309;28;20475;-51
2022/08/27 06:35:13;;;;;;;12.67;10.47;;;21.70;97.10;;;;;;5023091;28;20484;-50
2022/08/27 06:37:40;;;;;;;15.03;10.50;;;21.70;97.00;;;;;;5033116;28;20731;-51
2022/08/27 06:40:08;;;;;;;11.67;8.97;;;21.70;97.20;;;;;;5028755;28;20487;-50
2022/08/27 06:42:34;;;;;;;12.73;10.00;;;21.70;97.10;;;;;;5026605;28;20914;-50
2022/08/27 06:45:01;;;;;;;10.83;8.93;;;21.70;97.10;;;;;;5024675;28;20990;-51
2022/08/27 06:47:30;;;;;;;9.80;7.83;;;21.90;96.70;;;;;;5027445;28;21045;-51
2022/08/27 06:49:57;;;;;;;11.40;9.37;;;21.90;96.70;;;;;;5020215;28;20828;-50
2022/08/27 06:52:24;;;;;;;8.30;7.43;;;21.90;96.50;;;;;;5021891;28;20480;-50
2022/08/27 06:54:51;;;;;;;11.03;8.77;;;22.00;96.60;;;;;;5030903;28;20957;-51
2022/08/27 06:57:17;;;;;;;10.13;7.63;;;22.10;96.50;;;;;;5016293;28;20484;-51
2022/08/27 06:59:44;;;;;;;10.47;8.20;;;22.10;96.70;;;;;;5014996;28;20481;-51
2022/08/27 07:02:11;;;;;;;9.17;7.57;;;22.10;96.30;;;;;;5020781;28;20680;-51
2022/08/27 07:04:39;;;;;;;7.27;6.50;;;22.20;95.90;;;;;;5019161;28;21323;-51
2022/08/27 07:07:06;;;;;;;11.43;8.03;;;22.20;96.00;;;;;;5022176;28;20558;-51
2022/08/27 07:09:34;;;;;;;14.33;8.30;;;22.20;95.90;;;;;;5020310;28;20895;-51
2022/08/27 07:12:01;;;;;;;15.53;11.50;;;22.20;95.80;;;;;;5026492;28;20899;-51
2022/08/27 07:14:28;;;;;;;11.53;8.80;;;22.20;95.80;;;;;;5016252;28;20920;-51
2022/08/27 07:16:55;;;;;;;17.73;10.60;;;22.30;95.90;;;;;;5025438;28;20697;-51
2022/08/27 07:19:21;;;;;;;13.17;8.93;;;22.40;96.00;;;;;;5015372;28;20822;-51
2022/08/27 07:21:50;;;;;;;14.10;10.40;;;22.40;95.90;;;;;;5019284;28;20528;-51
2022/08/27 07:24:18;;;;;;;13.30;9.20;;;22.40;95.70;;;;;;5026049;28;20484;-51
2022/08/27 07:26:45;;;;;;;19.70;11.47;;;22.40;95.60;;;;;;5032875;28;20712;-51
2022/08/27 07:29:14;;;;;;;14.00;10.27;;;22.40;95.90;;;;;;5025621;28;20538;-51
2022/08/27 07:31:42;;;;;;;18.07;11.17;;;22.30;96.00;;;;;;5031989;28;20491;-51
2022/08/27 07:34:09;;;;;;;19.07;12.27;;;22.40;96.10;;;;;;5022787;28;20476;-51
2022/08/27 07:36:37;;;;;;;15.70;11.77;;;22.40;96.30;;;;;;5031279;28;20487;-51
2022/08/27 07:39:06;;;;;;;20.00;13.33;;;22.50;96.10;;;;;;5020212;28;21223;-51
2022/08/27 07:44:23;;;;;;;23.57;13.17;;;22.50;96.00;;;;;;5021202;28;20492;-51
2022/08/27 07:44:25;;;;;;;18.13;11.70;;;22.60;95.80;;;;;;5020871;28;20935;-52
2022/08/27 07:46:53;;;;;;;24.33;14.43;;;22.60;96.00;;;;;;5020262;28;21080;-52
2022/08/27 07:49:21;;;;;;;23.30;13.13;;;22.60;95.40;;;;;;5013923;28;20483;-52
2022/08/27 07:51:48;;;;;;;17.03;12.80;;;22.60;95.70;;;;;;5029327;28;20476;-52
2022/08/27 07:54:16;;;;;;;18.20;12.17;;;22.60;95.70;;;;;;5013567;28;20998;-52
2022/08/27 07:56:43;;;;;;;21.90;13.40;;;22.60;95.40;;;;;;4996292;28;20483;-51
2022/08/27 07:59:11;;;;;;;19.03;11.97;;;22.60;95.60;;;;;;5022504;28;20994;-52
2022/08/27 08:01:37;;;;;;;19.37;13.20;;;22.70;95.80;;;;;;5015505;28;20557;-51
2022/08/27 08:04:04;;;;;;;16.70;11.67;;;22.70;95.90;;;;;;5028765;28;20488;-50
2022/08/27 08:06:31;;;;;;;17.60;13.10;;;22.80;95.40;;;;;;5030970;28;20559;-51
2022/08/27 08:08:59;;;;;;;16.70;13.53;;;22.80;95.40;;;;;;5022486;28;20490;-51
2022/08/27 08:11:27;;;;;;;22.10;15.37;;;22.90;95.30;;;;;;5028087;28;21051;-52
2022/08/27 08:13:54;;;;;;;19.43;13.00;;;22.90;95.40;;;;;;5017469;28;20488;-51
2022/08/27 08:16:24;;;;;;;20.97;13.00;;;23.00;95.40;;;;;;5031294;28;20483;-52
2022/08/27 08:18:51;;;;;;;24.90;13.43;;;23.10;94.80;;;;;;5021956;28;20464;-52
2022/08/27 08:21:18;;;;;;;19.27;12.27;;;23.10;94.80;;;;;;5030479;28;21177;-51
2022/08/27 08:23:46;;;;;;;19.67;12.90;;;23.10;95.10;;;;;;5023448;28;20484;-51
2022/08/27 08:26:12;;;;;;;22.30;13.23;;;23.20;94.70;;;;;;5022453;28;20545;-51
2022/08/27 08:28:41;;;;;;;21.40;13.20;;;23.20;94.60;;;;;;5026699;28;20483;-52
2022/08/27 08:31:08;;;;;;;19.50;13.10;;;23.30;94.40;;;;;;5017329;28;20705;-52
2022/08/27 08:33:36;;;;;;;21.30;13.50;;;23.30;94.30;;;;;;5023164;28;20488;-51
2022/08/27 08:36:05;;;;;;;22.17;14.70;;;23.30;94.30;;;;;;5022689;28;20858;-52
2022/08/27 08:38:32;;;;;;;22.60;14.57;;;23.30;94.30;;;;;;5031532;28;20487;-52
2022/08/27 08:40:59;;;;;;;23.33;14.27;;;23.30;94.50;;;;;;5025292;28;21400;-51
2022/08/27 08:43:32;;;;;;;26.07;15.70;;;23.20;93.90;;;;;;5021003;28;20492;-52
2022/08/27 08:46:08;;;;;;;22.37;15.37;;;23.20;94.20;;;;;;5022369;28;21032;-51
2022/08/27 08:48:37;;;;;;;23.27;13.97;;;23.20;94.60;;;;;;5026231;28;20491;-51
2022/08/27 08:51:11;;;;;;;21.03;13.60;;;23.20;94.20;;;;;;5021342;28;20505;-52
2022/08/27 08:53:46;;;;;;;21.63;13.33;;;23.20;94.30;;;;;;5016179;28;21061;-52
2022/08/27 08:56:17;;;;;;;20.97;14.93;;;23.20;94.20;;;;;;5030193;28;20641;-52
2022/08/27 08:58:49;;;;;;;22.73;13.30;;;23.30;94.30;;;;;;5029331;28;20488;-52
2022/08/27 09:01:20;;;;;;;26.60;14.80;;;23.30;94.00;;;;;;5025950;28;20480;-52
2022/08/27 09:03:52;;;;;;;18.20;13.70;;;23.40;93.80;;;;;;4990644;28;20585;-51
2022/08/27 09:06:26;;;;;;;21.23;14.17;;;23.40;94.10;;;;;;5005898;28;20464;-52
2022/08/27 09:08:53;;;;;;;25.10;14.80;;;23.40;93.80;;;;;;5025907;28;20477;-52
2022/08/27 09:11:27;;;;;;;19.03;13.13;;;23.50;93.90;;;;;;5013950;28;20801;-51
2022/08/27 09:13:59;;;;;;;22.80;14.23;;;23.60;93.80;;;;;;5005017;28;20993;-52
2022/08/27 09:16:28;;;;;;;22.20;14.53;;;23.70;93.60;;;;;;5014952;28;20539;-52
2022/08/27 09:18:55;;;;;;;20.03;13.80;;;23.70;93.80;;;;;;5016265;28;20485;-52
2022/08/27 09:21:33;;;;;;;24.50;15.83;;;23.90;93.90;;;;;;5029270;28;20480;-52
2022/08/27 09:24:07;;;;;;;21.00;13.53;;;23.90;93.20;;;;;;5021383;28;21392;-51
2022/08/27 09:26:37;;;;;;;24.30;16.00;;;23.90;93.20;;;;;;5022522;28;21009;-51
2022/08/27 09:29:18;;;;;;;22.00;14.73;;;24.00;93.50;;;;;;5030469;28;20847;-52
2022/08/27 09:31:52;;;;;;;21.97;14.77;;;24.00;93.40;;;;;;5028843;28;20795;-52
2022/08/27 09:34:19;;;;;;;22.33;14.83;;;23.90;93.30;;;;;;5029399;28;20553;-52
2022/08/27 09:36:53;;;;;;;24.70;15.73;;;23.90;93.40;;;;;;5033373;28;21223;-52
2022/08/27 09:39:25;;;;;;;23.87;15.13;;;23.90;93.30;;;;;;5018726;28;20475;-52
2022/08/27 09:41:52;;;;;;;19.57;13.33;;;23.90;93.20;;;;;;5002294;28;20482;-52
2022/08/27 09:44:21;;;;;;;21.27;14.07;;;24.00;93.40;;;;;;5027190;28;20484;-51
2022/08/27 09:46:54;;;;;;;19.73;13.97;;;24.00;93.30;;;;;;5025717;28;21020;-52
2022/08/27 09:49:23;;;;;;;24.00;15.50;;;24.10;93.40;;;;;;5019571;28;20481;-52
2022/08/27 09:51:50;;;;;;;23.80;16.27;;;24.00;93.10;;;;;;5005968;28;21028;-52
2022/08/27 09:54:40;;;;;;;18.17;12.83;;;24.10;93.10;;;;;;5027747;28;20471;-52
2022/08/27 09:57:08;;;;;;;19.30;14.80;;;24.10;93.50;;;;;;5029259;28;20582;-51
2022/08/27 09:59:37;;;;;;;21.37;13.70;;;24.10;93.10;;;;;;5019549;28;20928;-52
2022/08/27 10:02:14;;;;;;;23.33;14.57;;;24.00;93.00;;;;;;5014410;28;20476;-52
2022/08/27 10:04:43;;;;;;;21.23;14.20;;;23.90;93.40;;;;;;5025999;28;20541;-52
2022/08/27 10:07:31;;;;;;;22.07;14.77;;;23.80;93.20;;;;;;5015798;28;20489;-51
2022/08/27 10:10:04;;;;;;;22.90;15.82;;;23.90;93.20;;;;;;5004176;28;20494;-52
2022/08/27 10:12:38;;;;;;;22.40;14.40;;;23.90;93.20;;;;;;5022679;28;20948;-51
2022/08/27 10:15:06;;;;;;;24.80;14.93;;;24.10;93.90;;;;;;5028685;28;21193;-51
2022/08/27 10:17:45;;;;;;;21.13;15.37;;;24.10;93.50;;;;;;5022954;28;20910;-51
2022/08/27 10:20:17;;;;;;;20.33;14.97;;;24.40;93.80;;;;;;5021624;28;20476;-51
2022/08/27 10:22:52;;;;;;;21.40;13.90;;;24.60;93.50;;;;;;5032490;28;20554;-51
2022/08/27 10:25:30;;;;;;;20.10;13.20;;;24.80;92.80;;;;;;5032184;28;20479;-51
2022/08/27 10:28:09;;;;;;;21.37;14.77;;;25.10;92.40;;;;;;4998538;28;20475;-51
2022/08/27 10:30:48;;;;;;;21.33;14.40;;;25.10;92.60;;;;;;5014870;28;20488;-51
2022/08/27 10:33:22;;;;;;;26.50;16.47;;;25.30;91.60;;;;;;5027553;28;20487;-51
2022/08/27 10:35:57;;;;;;;21.73;13.93;;;25.40;91.70;;;;;;5025002;28;20483;-50
2022/08/27 10:38:32;;;;;;;19.83;13.33;;;25.40;91.40;;;;;;5022063;28;20570;-51
2022/08/27 10:41:07;;;;;;;18.80;13.20;;;25.40;91.40;;;;;;5013028;28;21036;-50
2022/08/27 10:44:15;;;;;;;16.27;11.00;;;25.40;90.80;;;;;;5013339;28;20479;-51
2022/08/27 10:47:03;;;;;;;15.87;10.80;;;25.50;90.50;;;;;;5027412;28;20480;-50
2022/08/27 10:49:40;;;;;;;15.70;12.07;;;25.50;90.70;;;;;;5018782;28;20476;-50
2022/08/27 10:52:17;;;;;;;16.47;12.10;;;25.70;90.30;;;;;;5027376;28;20483;-50
2022/08/27 10:54:51;;;;;;;17.30;12.10;;;25.90;90.20;;;;;;5022566;28;20477;-52
2022/08/27 10:57:26;;;;;;;16.27;10.90;;;26.00;89.30;;;;;;5022731;28;20755;-50
2022/08/27 11:00:01;;;;;;;15.00;10.80;;;26.00;89.90;;;;;;5021219;28;20583;-50
2022/08/27 11:02:34;;;;;;;14.27;9.80;;;26.10;88.70;;;;;;5001439;28;20872;-50
2022/08/27 11:05:10;;;;;;;18.53;11.43;;;26.10;89.30;;;;;;5027437;28;20476;-50
2022/08/27 11:07:42;;;;;;;15.33;10.93;;;26.10;88.80;;;;;;5019023;28;20476;-50
2022/08/27 11:10:17;;;;;;;16.70;11.57;;;26.30;88.20;;;;;;5015753;28;20491;-52
2022/08/27 11:12:46;;;;;;;12.87;9.63;;;26.30;88.40;;;;;;5018343;28;20496;-51
2022/08/27 11:15:18;;;;;;;14.10;9.93;;;26.50;88.30;;;;;;5025977;28;21001;-50
2022/08/27 11:17:53;;;;;;;15.13;11.03;;;26.60;88.10;;;;;;5022983;28;20931;-50
2022/08/27 11:20:25;;;;;;;15.40;11.50;;;26.70;86.00;;;;;;5015225;28;20479;-51
2022/08/27 11:22:56;;;;;;;14.50;11.17;;;27.10;86.00;;;;;;5028791;28;20528;-51
2022/08/27 11:25:43;;;;;;;14.60;9.00;;;27.00;84.00;;;;;;5031855;28;20856;-50
2022/08/27 11:28:11;;;;;;;15.10;10.70;;;27.00;84.80;;;;;;5030518;28;21075;-50
2022/08/27 11:30:46;;;;;;;16.00;12.20;;;27.30;85.60;;;;;;5019394;28;20481;-50
2022/08/27 11:33:22;;;;;;;19.00;11.00;;;27.00;84.30;;;;;;5015124;28;20495;-50
2022/08/27 11:36:24;;;;;;;12.00;10.17;;;27.20;86.80;;;;;;5022179;28;20485;-50
2022/08/27 11:38:55;;;;;;;18.67;11.97;;;27.60;84.30;;;;;;5019059;28;20468;-51
2022/08/27 11:41:51;;;;;;;13.73;10.70;;;27.90;83.60;;;;;;5018856;28;20480;-50
2022/08/27 11:44:21;;;;;;;13.73;9.93;;;28.00;84.40;;;;;;5008384;28;20493;-50
2022/08/27 11:46:50;;;;;;;11.97;8.80;;;28.20;81.00;;;;;;5004487;28;20638;-51
2022/08/27 11:49:29;;;;;;;10.73;9.23;;;28.30;79.60;;;;;;5016166;28;20750;-51
2022/08/27 11:52:02;;;;;;;9.70;8.70;;;28.40;79.80;;;;;;5004114;28;20490;-50
2022/08/27 11:54:31;;;;;;;13.33;8.30;;;28.50;78.90;;;;;;5016368;28;20920;-50
2022/08/27 11:56:58;;;;;;;10.67;8.63;;;28.40;79.10;;;;;;5015399;28;20477;-51
2022/08/27 11:59:31;;;;;;;15.80;9.27;;;28.40;80.20;;;;;;5026806;28;21022;-51
2022/08/27 12:02:12;;;;;;;10.83;9.30;;;28.50;79.90;;;;;;5036400;28;20565;-51
2022/08/27 12:04:40;;;;;;;11.50;8.83;;;28.80;78.90;;;;;;5035026;28;20475;-50
2022/08/27 12:07:28;;;;;;;11.43;8.70;;;28.80;79.80;;;;;;5035569;28;20981;-50
2022/08/27 12:10:07;;;;;;;15.30;11.53;;;29.10;77.70;;;;;;5037600;28;21009;-51
2022/08/27 12:12:40;;;;;;;17.17;9.20;;;29.10;77.80;;;;;;5039924;28;20478;-50
2022/08/27 12:15:15;;;;;;;13.37;9.53;;;28.90;76.80;;;;;;5036685;28;20479;-51
2022/08/27 12:17:47;;;;;;;9.37;8.23;;;28.90;77.50;;;;;;5034596;28;20556;-51
2022/08/27 12:20:23;;;;;;;9.83;7.93;;;29.10;77.40;;;;;;5030041;28;20479;-52
2022/08/27 12:25:56;;;;;;;9.80;8.80;;;29.10;77.30;;;;;;5040408;28;20474;-52
2022/08/27 12:28:25;;;;;;;10.90;7.60;;;29.20;75.40;;;;;;5033191;28;20803;-51
2022/08/27 12:30:52;;;;;;;9.80;8.20;;;29.20;76.00;;;;;;5031939;28;20481;-52
2022/08/27 12:33:26;;;;;;;11.47;9.63;;;29.20;77.60;;;;;;5037667;28;20902;-51
2022/08/27 12:35:56;;;;;;;12.60;9.23;;;29.20;76.20;;;;;;5027525;28;20487;-52
2022/08/27 12:38:37;;;;;;;10.10;8.67;;;29.00;76.10;;;;;;5033840;28;21499;-53
2022/08/27 12:41:07;;;;;;;8.13;7.10;;;29.00;76.60;;;;;;5026985;28;20584;-52
2022/08/27 12:43:37;;;;;;;9.53;7.27;;;28.80;75.90;;;;;;5033531;28;20974;-52
2022/08/27 12:46:07;;;;;;;7.87;7.03;;;28.80;75.40;;;;;;5036102;28;20490;-55
2022/08/27 12:48:38;;;;;;;10.87;7.90;;;28.90;75.90;;;;;;5040787;28;20482;-51
2022/08/27 12:51:12;;;;;;;11.20;9.60;;;28.90;76.10;;;;;;5042403;28;21115;-52